Time,TemperatureF,DewpointF,PressureIn,WindDirection,WindDirectionDegrees,WindSpeedMPH,WindSpeedGustMPH,Humidity,HourlyPrecipIn,Conditions,Clouds,dailyrainin,SoftwareType,DateUTC
2013-08-26 00:05:00,68.8,64.0,30.20,North,359,0.0,-999.0,85,-99.99,,,0.00,weatherlink.com 1.10,2013-08-26 04:05:00,
2013-08-26 00:20:00,68.4,64.0,30.21,North,359,0.0,-999.0,86,-99.99,,,0.00,weatherlink.com 1.10,2013-08-26 04:20:00,
2013-08-26 00:35:00,67.8,64.0,30.21,North,0,0.0,-999.0,87,-99.99,,,0.00,weatherlink.com 1.10,2013-08-26 04:35:00,
2013-08-26 00:50:00,67.3,64.0,30.21,North,0,0.0,-999.0,88,-99.99,,,0.00,weatherlink.com 1.10,2013-08-26 04:50:00,
2013-08-26 01:05:00,66.9,63.0,30.20,North,357,0.0,-999.0,88,-99.99,,,0.00,weatherlink.com 1.10,2013-08-26 05:05:00,
2013-08-26 01:35:00,67.1,64.0,30.20,North,0,0.0,-999.0,88,-99.99,,,0.00,weatherlink.com 1.10,2013-08-26 05:35:00,
2013-08-26 01:50:00,67.1,64.0,30.20,North,0,0.0,-999.0,89,-99.99,,,0.00,weatherlink.com 1.10,2013-08-26 05:50:00,
2013-08-26 02:05:00,67.1,64.0,30.20,North,8,0.0,-999.0,89,-99.99,,,0.00,weatherlink.com 1.10,2013-08-26 06:05:00,
2013-08-26 02:20:00,66.8,64.0,30.20,North,356,0.0,-999.0,89,-99.99,,,0.00,weatherlink.com 1.10,2013-08-26 06:20:00,
2013-08-26 02:35:00,66.6,64.0,30.20,North,6,0.0,-999.0,90,-99.99,,,0.00,weatherlink.com 1.10,2013-08-26 06:35:00,
2013-08-26 02:50:00,66.4,64.0,30.19,North,0,1.0,-999.0,90,-99.99,,,0.00,weatherlink.com 1.10,2013-08-26 06:50:00,
2013-08-26 03:05:00,66.3,63.0,30.19,NNE,14,0.0,-999.0,90,-99.99,,,0.00,weatherlink.com 1.10,2013-08-26 07:05:00,
2013-08-26 03:20:00,66.3,63.0,30.19,North,0,0.0,-999.0,90,-99.99,,,0.00,weatherlink.com 1.10,2013-08-26 07:20:00,
2013-08-26 03:35:00,66.3,63.0,30.19,NNE,25,0.0,-999.0,90,-99.99,,,0.00,weatherlink.com 1.10,2013-08-26 07:35:00,
2013-08-26 03:50:00,66.4,63.0,30.19,NNE,24,0.0,-999.0,89,-99.99,,,0.00,weatherlink.com 1.10,2013-08-26 07:50:00,
2013-08-26 04:05:00,66.4,63.0,30.18,North,0,6.0,-999.0,89,-99.99,,,0.00,weatherlink.com 1.10,2013-08-26 08:05:00,
2013-08-26 04:20:00,66.1,63.0,30.18,North,1,0.0,-999.0,89,-99.99,,,0.00,weatherlink.com 1.10,2013-08-26 08:20:00,
2013-08-26 04:35:00,65.8,63.0,30.18,North,7,2.0,-999.0,90,-99.99,,,0.00,weatherlink.com 1.10,2013-08-26 08:35:00,
2013-08-26 04:50:00,65.6,63.0,30.18,North,4,0.0,-999.0,91,-99.99,,,0.00,weatherlink.com 1.10,2013-08-26 08:50:00,
2013-08-26 05:05:00,65.5,63.0,30.18,North,0,0.0,-999.0,92,-99.99,,,0.00,weatherlink.com 1.10,2013-08-26 09:05:00,
2013-08-26 05:20:00,65.3,63.0,30.18,North,0,0.0,-999.0,92,-99.99,,,0.00,weatherlink.com 1.10,2013-08-26 09:20:00,
2013-08-26 05:35:00,65.3,63.0,30.18,North,8,0.0,-999.0,92,-99.99,,,0.00,weatherlink.com 1.10,2013-08-26 09:35:00,
2013-08-26 05:50:00,65.2,63.0,30.18,North,10,0.0,-999.0,93,-99.99,,,0.00,weatherlink.com 1.10,2013-08-26 09:50:00,
2013-08-26 06:05:00,65.3,63.0,30.18,North,357,0.0,-999.0,93,-99.99,,,0.00,weatherlink.com 1.10,2013-08-26 10:05:00,
2013-08-26 06:20:00,65.0,63.0,30.18,North,3,0.0,-999.0,93,-99.99,,,0.00,weatherlink.com 1.10,2013-08-26 10:20:00,
2013-08-26 06:35:00,65.0,63.0,30.18,North,7,0.0,-999.0,93,-99.99,,,0.00,weatherlink.com 1.10,2013-08-26 10:35:00,
2013-08-26 06:50:00,65.0,63.0,30.18,North,0,0.0,-999.0,93,-99.99,,,0.00,weatherlink.com 1.10,2013-08-26 10:50:00,
2013-08-26 07:05:00,65.3,63.0,30.19,North,10,0.0,-999.0,93,-99.99,,,0.00,weatherlink.com 1.10,2013-08-26 11:05:00,
2013-08-26 07:20:00,66.1,64.0,30.18,North,3,0.0,-999.0,93,-99.99,,,0.00,weatherlink.com 1.10,2013-08-26 11:20:00,
2013-08-26 07:35:00,66.9,65.0,30.19,North,11,0.0,-999.0,93,-99.99,,,0.00,weatherlink.com 1.10,2013-08-26 11:35:00,
2013-08-26 07:50:00,67.8,65.0,30.18,North,0,0.0,-999.0,91,-99.99,,,0.00,weatherlink.com 1.10,2013-08-26 11:50:00,
2013-08-26 08:05:00,68.6,65.0,30.18,NNE,24,0.0,-999.0,89,-99.99,,,0.00,weatherlink.com 1.10,2013-08-26 12:05:00,
2013-08-26 08:20:00,69.1,65.0,30.18,NE,34,1.0,-999.0,87,-99.99,,,0.00,weatherlink.com 1.10,2013-08-26 12:20:00,
2013-08-26 08:35:00,69.9,66.0,30.19,NNE,28,0.0,-999.0,86,-99.99,,,0.00,weatherlink.com 1.10,2013-08-26 12:35:00,
2013-08-26 08:50:00,70.4,66.0,30.18,North,0,0.0,-999.0,86,-99.99,,,0.00,weatherlink.com 1.10,2013-08-26 12:50:00,
2013-08-26 09:05:00,71.3,67.0,30.19,North,354,0.0,-999.0,85,-99.99,,,0.00,weatherlink.com 1.10,2013-08-26 13:05:00,
2013-08-26 09:20:00,72.1,66.0,30.19,NNE,21,0.0,-999.0,82,-99.99,,,0.00,weatherlink.com 1.10,2013-08-26 13:20:00,
2013-08-26 09:35:00,73.3,67.0,30.19,NNE,17,0.0,-999.0,80,-99.99,,,0.00,weatherlink.com 1.10,2013-08-26 13:35:00,
2013-08-26 09:50:00,74.2,67.0,30.20,NE,40,0.0,-999.0,78,-99.99,,,0.00,weatherlink.com 1.10,2013-08-26 13:50:00,
2013-08-26 10:05:00,75.6,67.0,30.20,NNE,25,0.0,-999.0,75,-99.99,,,0.00,weatherlink.com 1.10,2013-08-26 14:05:00,
2013-08-26 10:20:00,76.3,66.0,30.20,North,10,0.0,-999.0,70,-99.99,,,0.00,weatherlink.com 1.10,2013-08-26 14:20:00,
2013-08-26 10:35:00,76.8,65.0,30.20,NE,35,0.0,-999.0,68,-99.99,,,0.00,weatherlink.com 1.10,2013-08-26 14:35:00,
2013-08-26 10:50:00,77.9,66.0,30.20,NNE,14,0.0,-999.0,67,-99.99,,,0.00,weatherlink.com 1.10,2013-08-26 14:50:00,
2013-08-26 11:05:00,79.0,66.0,30.20,North,3,0.0,-999.0,64,-99.99,,,0.00,weatherlink.com 1.10,2013-08-26 15:05:00,
2013-08-26 11:20:00,79.4,66.0,30.20,East,88,6.0,-999.0,63,-99.99,,,0.00,weatherlink.com 1.10,2013-08-26 15:20:00,
2013-08-26 11:35:00,79.6,66.0,30.19,NE,44,0.0,-999.0,63,-99.99,,,0.00,weatherlink.com 1.10,2013-08-26 15:35:00,
2013-08-26 11:50:00,80.1,66.0,30.18,NNE,14,0.0,-999.0,62,-99.99,,,0.00,weatherlink.com 1.10,2013-08-26 15:50:00,
2013-08-26 12:05:00,81.1,63.0,30.18,NNE,27,0.0,-999.0,55,-99.99,,,0.00,weatherlink.com 1.10,2013-08-26 16:05:00,
2013-08-26 12:20:00,81.4,60.0,30.18,NE,34,0.0,-999.0,49,-99.99,,,0.00,weatherlink.com 1.10,2013-08-26 16:20:00,
2013-08-26 12:35:00,81.4,63.0,30.18,ENE,72,0.0,-999.0,53,-99.99,,,0.00,weatherlink.com 1.10,2013-08-26 16:35:00,
2013-08-26 12:50:00,81.2,63.0,30.17,North,0,0.0,-999.0,55,-99.99,,,0.00,weatherlink.com 1.10,2013-08-26 16:50:00,
2013-08-26 13:05:00,81.4,62.0,30.16,ENE,64,0.0,-999.0,52,-99.99,,,0.00,weatherlink.com 1.10,2013-08-26 17:05:00,
2013-08-26 13:20:00,82.2,62.0,30.16,NE,45,0.0,-999.0,50,-99.99,,,0.00,weatherlink.com 1.10,2013-08-26 17:20:00,
2013-08-26 13:35:00,82.0,59.0,30.16,East,85,0.0,-999.0,46,-99.99,,,0.00,weatherlink.com 1.10,2013-08-26 17:35:00,
2013-08-26 13:50:00,82.0,60.0,30.15,NNE,23,0.0,-999.0,48,-99.99,,,0.00,weatherlink.com 1.10,2013-08-26 17:50:00,
2013-08-26 14:05:00,82.8,61.0,30.15,NNE,20,7.0,-999.0,48,-99.99,,,0.00,weatherlink.com 1.10,2013-08-26 18:05:00,
2013-08-26 14:20:00,83.0,61.0,30.14,ENE,68,0.0,-999.0,47,-99.99,,,0.00,weatherlink.com 1.10,2013-08-26 18:20:00,
2013-08-26 14:35:00,82.4,61.0,30.14,NNE,31,0.0,-999.0,49,-99.99,,,0.00,weatherlink.com 1.10,2013-08-26 18:35:00,
2013-08-26 14:50:00,83.4,58.0,30.13,ENE,62,0.0,-999.0,42,-99.99,,,0.00,weatherlink.com 1.10,2013-08-26 18:50:00,
2013-08-26 15:05:00,83.4,53.0,30.12,ENE,58,2.0,-999.0,35,-99.99,,,0.00,weatherlink.com 1.10,2013-08-26 19:05:00,
2013-08-26 15:20:00,83.6,55.0,30.12,SSE,162,0.0,-999.0,37,-99.99,,,0.00,weatherlink.com 1.10,2013-08-26 19:20:00,
2013-08-26 15:35:00,81.2,65.0,30.11,SSE,160,0.0,-999.0,58,-99.99,,,0.00,weatherlink.com 1.10,2013-08-26 19:35:00,
2013-08-26 15:50:00,81.1,66.0,30.11,South,169,1.0,-999.0,60,-99.99,,,0.00,weatherlink.com 1.10,2013-08-26 19:50:00,
2013-08-26 16:05:00,81.4,66.0,30.10,SSW,206,0.0,-999.0,60,-99.99,,,0.00,weatherlink.com 1.10,2013-08-26 20:05:00,
2013-08-26 16:20:00,81.4,66.0,30.09,SW,227,0.0,-999.0,59,-99.99,,,0.00,weatherlink.com 1.10,2013-08-26 20:20:00,
2013-08-26 16:35:00,81.4,66.0,30.09,SSW,203,0.0,-999.0,59,-99.99,,,0.00,weatherlink.com 1.10,2013-08-26 20:35:00,
2013-08-26 16:50:00,-999.0,-99.9,30.09,North,-999,-999.0,-999.0,-999,-99.99,,,0.00,weatherlink.com 1.10,2013-08-26 20:50:00,
2013-08-26 17:05:00,-999.0,-99.9,30.09,North,-999,-999.0,-999.0,-999,-99.99,,,0.00,weatherlink.com 1.10,2013-08-26 21:05:00,
2013-08-26 17:20:00,80.7,65.0,30.08,South,171,0.0,-999.0,60,-99.99,,,0.00,weatherlink.com 1.10,2013-08-26 21:20:00,
2013-08-26 17:35:00,80.1,66.0,30.08,South,171,0.0,-999.0,62,-99.99,,,0.00,weatherlink.com 1.10,2013-08-26 21:35:00,
2013-08-26 17:50:00,79.9,66.0,30.08,SSE,157,0.0,-999.0,62,-99.99,,,0.00,weatherlink.com 1.10,2013-08-26 21:50:00,
2013-08-26 18:05:00,79.6,64.0,30.07,South,169,0.0,-999.0,59,-99.99,,,0.00,weatherlink.com 1.10,2013-08-26 22:05:00,
2013-08-26 18:20:00,79.2,65.0,30.07,SSE,148,0.0,-999.0,61,-99.99,,,0.00,weatherlink.com 1.10,2013-08-26 22:20:00,
2013-08-26 18:35:00,78.6,64.0,30.07,South,184,1.0,-999.0,62,-99.99,,,0.00,weatherlink.com 1.10,2013-08-26 22:35:00,
2013-08-26 18:50:00,78.3,64.0,30.07,SE,145,0.0,-999.0,61,-99.99,,,0.00,weatherlink.com 1.10,2013-08-26 22:50:00,
2013-08-26 19:05:00,77.7,63.0,30.07,SSE,161,0.0,-999.0,60,-99.99,,,0.00,weatherlink.com 1.10,2013-08-26 23:05:00,
2013-08-26 19:35:00,77.0,62.0,30.07,SSE,150,0.0,-999.0,61,-99.99,,,0.00,weatherlink.com 1.10,2013-08-26 23:35:00,
2013-08-26 19:50:00,76.8,63.0,30.07,SE,138,0.0,-999.0,62,-99.99,,,0.00,weatherlink.com 1.10,2013-08-26 23:50:00,
2013-08-26 20:05:00,76.7,62.0,30.07,SE,138,0.0,-999.0,60,-99.99,,,0.00,weatherlink.com 1.10,2013-08-27 00:05:00,
2013-08-26 20:20:00,76.5,61.0,30.07,SE,138,0.0,-999.0,60,-99.99,,,0.00,weatherlink.com 1.10,2013-08-27 00:20:00,
2013-08-26 20:35:00,76.5,61.0,30.07,SE,138,0.0,-999.0,58,-99.99,,,0.00,weatherlink.com 1.10,2013-08-27 00:35:00,
2013-08-26 20:50:00,76.3,61.0,30.07,SE,138,0.0,-999.0,59,-99.99,,,0.00,weatherlink.com 1.10,2013-08-27 00:50:00,
2013-08-26 21:05:00,76.3,59.0,30.08,SE,138,0.0,-999.0,56,-99.99,,,0.00,weatherlink.com 1.10,2013-08-27 01:05:00,
2013-08-26 21:20:00,76.1,59.0,30.07,SE,138,0.0,-999.0,56,-99.99,,,0.00,weatherlink.com 1.10,2013-08-27 01:20:00,
2013-08-26 21:35:00,76.1,59.0,30.07,SE,138,0.0,-999.0,56,-99.99,,,0.00,weatherlink.com 1.10,2013-08-27 01:35:00,
2013-08-26 21:50:00,76.1,60.0,30.07,SE,140,0.0,-999.0,57,-99.99,,,0.00,weatherlink.com 1.10,2013-08-27 01:50:00,
2013-08-26 22:05:00,76.0,60.0,30.07,SE,140,0.0,-999.0,57,-99.99,,,0.00,weatherlink.com 1.10,2013-08-27 02:05:00,
2013-08-26 22:20:00,75.6,61.0,30.08,SE,140,0.0,-999.0,61,-99.99,,,0.00,weatherlink.com 1.10,2013-08-27 02:20:00,
2013-08-26 22:35:00,75.3,61.0,30.08,SE,140,0.0,-999.0,61,-99.99,,,0.00,weatherlink.com 1.10,2013-08-27 02:35:00,
2013-08-26 22:50:00,75.6,61.0,30.07,SE,140,0.0,-999.0,60,-99.99,,,0.00,weatherlink.com 1.10,2013-08-27 02:50:00,
2013-08-26 23:05:00,75.8,62.0,30.07,SE,140,0.0,-999.0,63,-99.99,,,0.00,weatherlink.com 1.10,2013-08-27 03:05:00,
2013-08-26 23:20:00,75.4,63.0,30.07,SE,140,0.0,-999.0,65,-99.99,,,0.00,weatherlink.com 1.10,2013-08-27 03:20:00,
2013-08-26 23:35:00,75.8,61.0,30.07,SSE,147,0.0,-999.0,61,-99.99,,,0.00,weatherlink.com 1.10,2013-08-27 03:35:00,
2013-08-26 23:50:00,76.0,63.0,30.06,SSE,147,0.0,-999.0,65,-99.99,,,0.00,weatherlink.com 1.10,2013-08-27 03:50:00,